createdAt,value
2018-09-17T00:01:32.783Z,17.90
2018-09-17T00:04:01.465Z,17.90
2018-09-17T00:06:31.787Z,17.20
2018-09-17T00:09:00.610Z,17.70
2018-09-17T00:11:29.256Z,17.70
2018-09-17T00:13:57.990Z,17.70
2018-09-17T00:16:26.630Z,16.50
2018-09-17T00:18:56.989Z,17.60
2018-09-17T00:21:25.969Z,17.60
2018-09-17T00:23:57.228Z,17.10
2018-09-17T00:26:25.889Z,17.60
2018-09-17T00:28:54.631Z,17.10
2018-09-17T00:31:23.368Z,15.40
2018-09-17T00:33:52.555Z,17.70
2018-09-17T00:36:21.317Z,17.70
2018-09-17T00:38:50.005Z,17.70
2018-09-17T00:41:18.687Z,17.70
2018-09-17T00:43:49.099Z,17.70
2018-09-17T00:46:19.537Z,17.60
2018-09-17T00:48:48.203Z,17.60
2018-09-17T00:51:17.660Z,17.40
2018-09-17T00:53:46.434Z,17.30
2018-09-17T00:56:15.118Z,17.30
2018-09-17T00:58:46.772Z,17.30
2018-09-17T01:01:15.570Z,17.30
2018-09-17T01:03:44.201Z,17.20
2018-09-17T01:06:14.150Z,17.20
2018-09-17T01:08:42.872Z,17.20
2018-09-17T01:11:14.041Z,17.20
2018-09-17T01:13:42.988Z,16.10
2018-09-17T01:16:11.798Z,18.30
2018-09-17T01:18:40.657Z,17.20
2018-09-17T01:21:09.296Z,17.10
2018-09-17T01:23:40.482Z,17.10
2018-09-17T01:26:09.151Z,19.00
2018-09-17T01:28:37.863Z,17.10
2018-09-17T01:31:06.590Z,16.80
2018-09-17T01:33:35.416Z,17.10
2018-09-17T01:36:05.346Z,17.00
2018-09-17T01:38:34.132Z,17.00
2018-09-17T01:41:06.327Z,17.00
2018-09-17T01:43:35.203Z,17.00
2018-09-17T01:46:03.941Z,17.10
2018-09-17T01:48:32.650Z,16.70
2018-09-17T01:51:01.475Z,17.10
2018-09-17T01:53:30.108Z,17.00
2018-09-17T01:55:58.842Z,17.00
2018-09-17T01:58:27.540Z,17.00
2018-09-17T02:00:56.820Z,17.00
2018-09-17T02:03:25.546Z,17.00
2018-09-17T02:05:55.047Z,18.90
2018-09-17T02:08:23.751Z,17.00
2018-09-17T02:10:52.495Z,16.90
2018-09-17T02:13:21.332Z,17.00
2018-09-17T02:15:50.157Z,16.90
2018-09-17T02:18:19.137Z,16.90
2018-09-17T02:20:48.065Z,16.90
2018-09-17T02:23:16.758Z,16.80
2018-09-17T02:25:45.467Z,16.70
2018-09-17T02:28:14.387Z,16.70
2018-09-17T02:30:43.124Z,16.10
2018-09-17T02:33:12.227Z,16.70
2018-09-17T02:35:41.013Z,16.80
2018-09-17T02:38:09.717Z,16.80
2018-09-17T02:40:41.462Z,16.80
2018-09-17T02:43:12.418Z,16.70
2018-09-17T02:45:41.448Z,16.70
2018-09-17T02:48:10.122Z,16.60
2018-09-17T02:50:41.024Z,16.60
2018-09-17T02:53:11.249Z,16.60
2018-09-17T02:55:39.984Z,16.60
2018-09-17T02:58:09.886Z,16.60
2018-09-17T03:00:38.626Z,16.70
2018-09-17T03:03:07.519Z,15.40
2018-09-17T03:05:36.637Z,16.70
2018-09-17T03:08:05.501Z,16.70
2018-09-17T03:10:34.307Z,16.60
2018-09-17T03:13:03.134Z,16.70
2018-09-17T03:15:42.942Z,16.30
2018-09-17T03:18:11.689Z,16.60
2018-09-17T03:20:40.362Z,16.70
2018-09-17T03:23:09.073Z,16.60
2018-09-17T03:25:37.848Z,16.70
2018-09-17T03:28:06.527Z,16.70
2018-09-17T03:30:35.630Z,16.70
2018-09-17T03:33:04.518Z,16.60
2018-09-17T03:35:33.309Z,16.70
2018-09-17T03:38:17.804Z,16.60
2018-09-17T03:40:46.471Z,16.60
2018-09-17T03:43:15.194Z,16.60
2018-09-17T03:45:43.936Z,16.60
2018-09-17T03:48:12.724Z,16.60
2018-09-17T03:50:41.350Z,16.60
2018-09-17T03:53:10.220Z,16.60
2018-09-17T03:55:38.982Z,16.60
2018-09-17T03:58:07.828Z,16.60
2018-09-17T04:00:36.485Z,15.20
2018-09-17T04:03:05.187Z,16.60
2018-09-17T04:05:33.873Z,16.60
2018-09-17T04:08:02.907Z,16.50
2018-09-17T04:10:31.792Z,17.90
2018-09-17T04:13:00.637Z,16.40
2018-09-17T04:15:29.873Z,16.40
2018-09-17T04:17:58.924Z,16.40
2018-09-17T04:20:27.759Z,17.20
2018-09-17T04:22:57.243Z,16.50
2018-09-17T04:25:26.237Z,16.50
2018-09-17T04:27:54.936Z,16.50
2018-09-17T04:30:24.066Z,16.60
2018-09-17T04:32:53.543Z,14.20
2018-09-17T04:35:22.734Z,16.50
2018-09-17T04:37:51.454Z,16.50
2018-09-17T04:40:20.142Z,16.50
2018-09-17T04:42:48.996Z,16.40
2018-09-17T04:45:18.552Z,16.40
2018-09-17T04:47:47.423Z,15.60
2018-09-17T04:50:16.120Z,16.40
2018-09-17T04:52:46.880Z,16.40
2018-09-17T04:55:15.588Z,16.40
2018-09-17T04:57:44.755Z,16.40
2018-09-17T05:00:13.602Z,16.40
2018-09-17T05:02:42.393Z,16.40
2018-09-17T05:05:11.150Z,16.40
2018-09-17T05:07:39.927Z,16.40
2018-09-17T05:10:08.660Z,16.40
2018-09-17T05:12:37.317Z,16.40
2018-09-17T05:15:08.011Z,16.40
2018-09-17T05:17:36.795Z,16.40
2018-09-17T05:20:05.533Z,16.50
2018-09-17T05:22:34.385Z,18.20
2018-09-17T05:25:03.081Z,16.50
2018-09-17T05:27:36.177Z,16.50
2018-09-17T05:30:05.136Z,16.40
2018-09-17T05:32:39.677Z,16.50
2018-09-17T05:35:14.525Z,16.50
2018-09-17T05:37:43.276Z,16.50
2018-09-17T05:40:11.924Z,16.60
2018-09-17T05:42:40.670Z,16.60
2018-09-17T05:45:09.351Z,16.60
2018-09-17T05:47:38.039Z,16.60
2018-09-17T05:50:06.832Z,16.50
2018-09-17T05:52:35.512Z,16.40
2018-09-17T05:55:04.394Z,16.50
2018-09-17T05:57:33.167Z,16.60
2018-09-17T06:00:02.382Z,14.80
2018-09-17T06:02:31.103Z,16.50
2018-09-17T06:04:59.767Z,16.30
2018-09-17T06:07:29.478Z,16.50
2018-09-17T06:09:58.531Z,16.60
2018-09-17T06:12:27.350Z,16.80
2018-09-17T06:14:59.243Z,16.90
2018-09-17T06:17:27.968Z,16.90
2018-09-17T06:19:56.699Z,16.90
2018-09-17T06:22:25.357Z,17.00
2018-09-17T06:24:54.042Z,17.20
2018-09-17T06:27:22.755Z,17.30
2018-09-17T06:29:52.264Z,17.40
2018-09-17T06:32:26.089Z,17.50
2018-09-17T06:34:55.377Z,17.60
2018-09-17T06:37:24.225Z,17.70
2018-09-17T06:39:52.833Z,17.90
2018-09-17T06:42:22.036Z,18.10
2018-09-17T06:44:59.958Z,18.30
2018-09-17T06:47:33.784Z,18.40
2018-09-17T06:50:02.644Z,18.60
2018-09-17T06:52:31.659Z,18.60
2018-09-17T06:55:00.359Z,18.60
2018-09-17T06:57:29.021Z,16.60
2018-09-17T07:00:01.307Z,16.70
2018-09-17T07:02:30.785Z,18.50
2018-09-17T07:05:00.462Z,18.50
2018-09-17T07:07:31.561Z,17.20
2018-09-17T07:10:00.388Z,19.70
2018-09-17T07:12:29.113Z,18.70
2018-09-17T07:14:57.929Z,18.70
2018-09-17T07:17:26.561Z,18.90
2018-09-17T07:19:55.673Z,19.00
2018-09-17T07:22:24.825Z,19.10
2018-09-17T07:24:55.041Z,19.10
2018-09-17T07:27:25.303Z,19.20
2018-09-17T07:29:54.158Z,19.30
2018-09-17T07:32:24.258Z,19.50
2018-09-17T07:34:52.942Z,19.60
2018-09-17T07:37:21.903Z,19.60
2018-09-17T07:39:50.879Z,19.60
2018-09-17T07:42:19.685Z,19.70
2018-09-17T07:44:48.735Z,19.70
2018-09-17T07:47:17.575Z,19.90
2018-09-17T07:49:46.276Z,20.00
2018-09-17T07:52:15.323Z,20.10
2018-09-17T07:54:44.028Z,20.20
2018-09-17T07:57:12.771Z,18.50
2018-09-17T07:59:41.444Z,20.20
2018-09-17T08:02:10.348Z,20.00
2018-09-17T08:04:39.056Z,20.00
2018-09-17T08:07:08.534Z,20.00
2018-09-17T08:09:38.697Z,20.00
2018-09-17T08:12:07.773Z,20.20
2018-09-17T08:14:37.095Z,20.40
2018-09-17T08:17:06.283Z,20.50
2018-09-17T08:19:35.869Z,20.50
2018-09-17T08:22:05.174Z,20.60
2018-09-17T08:26:04.000Z,20.70
2018-09-17T08:28:33.060Z,20.90
2018-09-17T08:31:02.373Z,20.80
2018-09-17T08:33:31.645Z,20.80
2018-09-17T08:36:01.454Z,20.80
2018-09-17T08:38:31.345Z,20.80
2018-09-17T08:41:00.228Z,21.00
2018-09-17T08:43:29.060Z,21.20
2018-09-17T08:45:57.961Z,21.40
2018-09-17T08:48:27.207Z,21.50
2018-09-17T08:50:56.045Z,21.30
2018-09-17T08:53:26.574Z,21.30
2018-09-17T08:56:04.555Z,21.40
2018-09-17T08:58:34.824Z,21.40
2018-09-17T09:01:08.182Z,21.70
2018-09-17T09:03:39.028Z,21.80
2018-09-17T09:06:13.085Z,21.80
2018-09-17T09:08:42.703Z,21.80
2018-09-17T09:11:25.636Z,21.80
2018-09-17T09:13:56.757Z,21.90
2018-09-17T09:16:25.935Z,22.10
2018-09-17T09:18:55.805Z,22.10
2018-09-17T09:21:31.340Z,22.30
2018-09-17T09:24:00.448Z,22.30
2018-09-17T09:26:30.210Z,22.30
2018-09-17T09:28:59.268Z,22.50
2018-09-17T09:31:28.609Z,22.50
2018-09-17T09:34:00.208Z,22.60
2018-09-17T09:36:29.168Z,22.70
2018-09-17T09:38:59.983Z,22.70
2018-09-17T09:41:28.805Z,22.80
2018-09-17T09:43:58.365Z,22.90
2018-09-17T09:46:27.483Z,22.50
2018-09-17T09:48:56.381Z,22.50
2018-09-17T09:51:31.011Z,22.60
2018-09-17T09:54:09.900Z,22.50
2018-09-17T09:56:40.220Z,22.70
2018-09-17T10:06:47.039Z,23.70
2018-09-17T10:09:21.581Z,23.90
2018-09-17T10:11:56.605Z,24.00
2018-09-17T10:14:30.589Z,25.00
2018-09-17T10:17:04.827Z,26.30
2018-09-17T10:19:34.073Z,26.90
2018-09-17T10:22:02.875Z,27.90
2018-09-17T10:24:31.621Z,28.50
2018-09-17T10:27:04.189Z,28.50
2018-09-17T10:29:32.911Z,28.80
2018-09-17T10:32:01.687Z,28.80
2018-09-17T10:34:30.487Z,28.70
2018-09-17T10:36:59.852Z,28.90
2018-09-17T10:39:28.590Z,28.40
2018-09-17T10:41:57.375Z,27.90
2018-09-17T10:44:26.172Z,28.00
2018-09-17T10:46:55.550Z,28.30
2018-09-17T10:49:24.285Z,28.50
2018-09-17T10:51:53.119Z,28.90
2018-09-17T10:54:21.878Z,29.50
2018-09-17T10:56:50.701Z,30.10
2018-09-17T10:59:19.430Z,29.90
2018-09-17T11:01:48.294Z,29.30
2018-09-17T11:04:17.026Z,29.30
2018-09-17T11:06:45.920Z,29.10
2018-09-17T11:09:17.396Z,29.30
2018-09-17T11:11:46.192Z,29.70
2018-09-17T11:14:14.856Z,29.80
2018-09-17T11:16:43.782Z,29.60
2018-09-17T11:19:12.512Z,29.60
2018-09-17T11:21:42.069Z,28.10
2018-09-17T11:24:14.416Z,29.90
2018-09-17T11:26:53.382Z,30.00
2018-09-17T11:29:28.593Z,30.10
2018-09-17T11:31:57.444Z,30.00
2018-09-17T11:34:32.465Z,28.80
2018-09-17T11:37:05.299Z,30.20
2018-09-17T11:39:34.127Z,30.10
2018-09-17T11:42:03.043Z,30.50
2018-09-17T11:44:33.214Z,30.80
2018-09-17T11:47:04.225Z,31.10
2018-09-17T11:49:33.394Z,31.50
2018-09-17T11:52:02.145Z,31.60
2018-09-17T11:54:31.102Z,31.70
2018-09-17T11:56:59.781Z,30.40
2018-09-17T11:59:29.559Z,31.10
2018-09-17T12:02:05.897Z,32.30
2018-09-17T12:05:05.529Z,33.30
2018-09-17T12:07:40.065Z,33.20
2018-09-17T12:10:11.118Z,32.50
2018-09-17T12:12:40.278Z,32.40
2018-09-17T12:15:09.474Z,32.20
2018-09-17T12:17:38.346Z,31.80
2018-09-17T12:20:07.390Z,31.50
2018-09-17T12:22:44.490Z,31.60
2018-09-17T12:25:18.141Z,31.90
2018-09-17T12:27:47.189Z,32.00
2018-09-17T12:30:15.983Z,32.40
2018-09-17T12:32:45.290Z,32.50
2018-09-17T12:35:14.013Z,32.40
2018-09-17T12:37:46.052Z,32.70
2018-09-17T12:40:14.779Z,33.00
2018-09-17T12:42:43.696Z,32.80
2018-09-17T12:45:12.599Z,33.10
2018-09-17T12:47:41.317Z,33.60
2018-09-17T12:50:10.025Z,32.60
2018-09-17T12:52:38.854Z,33.30
2018-09-17T12:55:08.378Z,34.20
2018-09-17T12:57:37.124Z,35.10
2018-09-17T13:00:08.711Z,34.80
2018-09-17T13:02:41.011Z,34.70
2018-09-17T13:05:10.063Z,34.60
2018-09-17T13:07:39.272Z,33.30
2018-09-17T13:10:08.189Z,33.50
2018-09-17T13:12:37.077Z,33.90
2018-09-17T13:15:06.303Z,33.60
2018-09-17T13:17:34.977Z,33.60
2018-09-17T13:20:03.821Z,34.00
2018-09-17T13:22:32.712Z,34.00
2018-09-17T13:25:09.309Z,33.70
2018-09-17T13:27:38.040Z,33.50
2018-09-17T13:30:07.337Z,33.40
2018-09-17T13:32:36.978Z,33.50
2018-09-17T13:35:10.054Z,33.40
2018-09-17T13:37:44.327Z,33.40
2018-09-17T13:40:13.977Z,33.70
2018-09-17T13:42:42.679Z,33.70
2018-09-17T13:45:11.519Z,33.80
2018-09-17T13:47:41.073Z,34.10
2018-09-17T13:50:09.773Z,33.50
2018-09-17T13:52:38.429Z,33.10
2018-09-17T13:55:08.877Z,32.00
2018-09-17T13:57:37.640Z,30.70
2018-09-17T14:00:06.680Z,30.30
2018-09-17T14:02:35.669Z,29.60
2018-09-17T14:05:04.515Z,29.30
2018-09-17T14:07:33.375Z,29.10
2018-09-17T14:10:02.745Z,28.60
2018-09-17T14:12:32.983Z,28.90
2018-09-17T14:15:01.667Z,28.70
2018-09-17T14:17:30.603Z,28.60
2018-09-17T14:19:59.253Z,28.50
2018-09-17T14:22:28.010Z,28.60
2018-09-17T14:24:56.672Z,28.70
2018-09-17T14:27:25.515Z,28.70
2018-09-17T14:29:56.741Z,28.60
2018-09-17T14:32:32.887Z,28.50
2018-09-17T14:35:05.392Z,27.70
2018-09-17T14:37:34.430Z,28.20
2018-09-17T14:40:03.280Z,26.50
2018-09-17T14:42:36.175Z,28.10
2018-09-17T14:45:07.048Z,28.00
2018-09-17T14:47:36.109Z,28.00
2018-09-17T14:50:05.468Z,27.90
2018-09-17T14:52:34.390Z,27.90
2018-09-17T14:55:09.560Z,27.90
2018-09-17T14:57:45.509Z,27.80
2018-09-17T15:00:20.050Z,27.80
2018-09-17T15:02:48.739Z,27.80
2018-09-17T15:05:17.449Z,27.80
2018-09-17T15:07:46.206Z,27.70
2018-09-17T15:10:21.605Z,27.70
2018-09-17T15:12:59.044Z,27.30
2018-09-17T15:15:28.455Z,27.70
2018-09-17T15:17:57.153Z,27.60
2018-09-17T15:20:26.026Z,27.60
2018-09-17T15:22:55.110Z,27.60
2018-09-17T15:25:28.488Z,27.50
2018-09-17T15:27:57.768Z,27.40
2018-09-17T15:30:26.392Z,27.40
2018-09-17T15:32:55.079Z,27.10
2018-09-17T15:35:23.867Z,27.10
2018-09-17T15:37:52.882Z,27.20
2018-09-17T15:40:21.722Z,27.20
2018-09-17T15:42:50.841Z,27.20
2018-09-17T15:45:19.907Z,27.10
2018-09-17T15:47:48.570Z,27.90
2018-09-17T15:50:19.838Z,27.20
2018-09-17T15:52:48.537Z,27.10
2018-09-17T15:55:17.254Z,27.10
2018-09-17T15:57:46.027Z,27.10
2018-09-17T16:00:14.956Z,27.10
2018-09-17T16:02:44.877Z,27.00
2018-09-17T16:05:13.555Z,26.90
2018-09-17T16:07:43.557Z,26.80
2018-09-17T16:10:15.690Z,26.70
2018-09-17T16:12:44.787Z,26.60
2018-09-17T16:15:13.529Z,26.60
2018-09-17T16:17:42.831Z,26.60
2018-09-17T16:20:21.471Z,26.60
2018-09-17T16:23:13.584Z,26.50
2018-09-17T16:25:42.976Z,26.30
2018-09-17T16:28:11.953Z,26.30
2018-09-17T16:30:40.708Z,26.30
2018-09-17T16:33:12.207Z,26.20
2018-09-17T16:35:43.413Z,26.10
2018-09-17T16:38:13.062Z,26.10
2018-09-17T16:40:41.894Z,26.00
2018-09-17T16:43:11.019Z,25.90
2018-09-17T16:45:40.722Z,25.90
2018-09-17T16:48:09.963Z,25.90
2018-09-17T16:50:41.935Z,25.80
2018-09-17T16:53:14.442Z,25.70
2018-09-17T16:55:51.333Z,25.70
2018-09-17T16:58:20.882Z,25.60
2018-09-17T17:00:51.322Z,25.60
2018-09-17T17:03:20.324Z,25.60
2018-09-17T17:05:50.746Z,25.40
2018-09-17T17:08:19.900Z,25.30
2018-09-17T17:10:48.715Z,25.20
2018-09-17T17:13:17.546Z,24.90
2018-09-17T17:15:49.469Z,24.70
2018-09-17T17:18:20.256Z,24.60
2018-09-17T17:20:49.252Z,24.40
2018-09-17T17:23:18.262Z,24.40
2018-09-17T17:25:47.160Z,23.20
2018-09-17T17:28:16.391Z,24.20
2018-09-17T17:30:52.664Z,24.10
2018-09-17T17:33:40.219Z,24.00
2018-09-17T17:36:21.770Z,23.90
2018-09-17T17:38:50.904Z,23.80
2018-09-17T17:41:25.211Z,23.70
2018-09-17T17:43:55.642Z,23.60
2018-09-17T17:46:24.617Z,23.60
2018-09-17T17:48:53.593Z,23.50
2018-09-17T17:51:23.232Z,23.50
2018-09-17T17:53:52.287Z,23.40
2018-09-17T17:56:21.619Z,23.30
2018-09-17T17:58:50.607Z,23.20
2018-09-17T18:01:19.600Z,23.10
2018-09-17T18:03:48.575Z,23.10
2018-09-17T18:06:17.804Z,23.00
2018-09-17T18:08:47.646Z,23.00
2018-09-17T18:11:16.401Z,23.00
2018-09-17T18:13:45.482Z,22.90
2018-09-17T18:16:17.039Z,22.90
2018-09-17T18:18:45.855Z,22.80
2018-09-17T18:21:14.620Z,22.80
2018-09-17T18:23:43.453Z,22.80
2018-09-17T18:26:12.115Z,22.80
2018-09-17T18:28:41.168Z,22.80
2018-09-17T18:31:11.339Z,22.80
2018-09-17T18:33:40.223Z,22.70
2018-09-17T18:36:09.137Z,22.70
2018-09-17T18:38:37.901Z,22.70
2018-09-17T18:41:06.577Z,22.70
2018-09-17T18:43:35.237Z,22.70
2018-09-17T18:46:03.827Z,22.60
2018-09-17T18:48:32.733Z,21.50
2018-09-17T18:51:01.855Z,22.50
2018-09-17T18:53:30.540Z,22.40
2018-09-17T18:55:59.415Z,22.40
2018-09-17T18:58:28.282Z,22.30
2018-09-17T19:00:57.237Z,22.30
2018-09-17T19:03:26.047Z,22.30
2018-09-17T19:05:54.879Z,22.30
2018-09-17T19:08:27.424Z,22.30
2018-09-17T19:10:57.388Z,22.20
2018-09-17T19:13:26.076Z,22.30
2018-09-17T19:15:57.034Z,22.20
2018-09-17T19:18:25.766Z,22.20
2018-09-17T19:20:54.765Z,22.10
2018-09-17T19:23:28.540Z,22.10
2018-09-17T19:25:57.285Z,21.90
2018-09-17T19:28:34.718Z,21.80
2018-09-17T19:31:03.525Z,21.80
2018-09-17T19:33:32.780Z,21.70
2018-09-17T19:36:01.464Z,21.60
2018-09-17T19:38:36.013Z,21.70
2018-09-17T19:41:09.066Z,21.70
2018-09-17T19:43:37.938Z,21.60
2018-09-17T19:46:12.783Z,21.60
2018-09-17T19:48:41.498Z,21.40
2018-09-17T19:51:15.996Z,20.40
2018-09-17T19:53:46.745Z,21.30
2018-09-17T19:56:15.566Z,21.30
2018-09-17T19:58:49.436Z,21.30
2018-09-17T20:01:18.210Z,21.20
2018-09-17T20:03:47.484Z,21.20
2018-09-17T20:06:25.784Z,21.10
2018-09-17T20:08:55.092Z,21.10
2018-09-17T20:11:24.205Z,21.10
2018-09-17T20:13:52.743Z,21.00
2018-09-17T20:16:24.407Z,20.10
2018-09-17T20:18:54.057Z,21.10
2018-09-17T20:21:23.418Z,21.00
2018-09-17T20:23:52.776Z,20.90
2018-09-17T20:26:21.939Z,20.90
2018-09-17T20:28:51.690Z,20.90
2018-09-17T20:31:28.421Z,20.90
2018-09-17T20:33:58.228Z,20.90
2018-09-17T20:36:28.423Z,20.90
2018-09-17T20:38:58.968Z,20.90
2018-09-17T20:41:28.388Z,20.80
2018-09-17T20:43:58.675Z,20.80
2018-09-17T20:46:28.645Z,20.70
2018-09-17T20:48:57.294Z,20.70
2018-09-17T20:51:30.373Z,20.60
2018-09-17T20:53:59.255Z,20.50
2018-09-17T20:56:31.131Z,20.50
2018-09-17T20:58:59.819Z,20.50
2018-09-17T21:01:28.499Z,20.50
2018-09-17T21:03:57.365Z,20.50
2018-09-17T21:06:26.127Z,20.40
2018-09-17T21:08:54.657Z,20.40
2018-09-17T21:11:24.195Z,20.30
2018-09-17T21:13:52.758Z,20.20
2018-09-17T21:16:23.582Z,20.20
2018-09-17T21:18:52.513Z,20.10
2018-09-17T21:21:21.186Z,20.10
2018-09-17T21:23:52.652Z,20.10
2018-09-17T21:26:23.839Z,20.10
2018-09-17T21:28:52.529Z,20.10
2018-09-17T21:31:24.134Z,20.10
2018-09-17T21:33:57.214Z,20.00
2018-09-17T21:36:30.297Z,20.00
2018-09-17T21:39:04.142Z,20.00
2018-09-17T21:41:33.983Z,19.90
2018-09-17T21:44:10.297Z,20.00
2018-09-17T21:46:42.779Z,20.00
2018-09-17T21:49:11.673Z,19.90
2018-09-17T21:51:45.074Z,20.00
2018-09-17T21:54:14.106Z,20.00
2018-09-17T21:56:42.833Z,20.00
2018-09-17T21:59:22.706Z,20.00
2018-09-17T22:01:53.552Z,20.00
2018-09-17T22:04:23.232Z,19.90
2018-09-17T22:06:55.036Z,19.90
2018-09-17T22:09:26.720Z,19.90
2018-09-17T22:11:55.355Z,20.90
2018-09-17T22:14:24.944Z,19.80
2018-09-17T22:16:53.583Z,19.80
2018-09-17T22:19:25.640Z,19.70
2018-09-17T22:21:54.322Z,19.70
2018-09-17T22:24:23.443Z,19.10
2018-09-17T22:26:52.520Z,19.60
2018-09-17T22:29:21.136Z,19.60
2018-09-17T22:31:49.743Z,19.50
2018-09-17T22:34:19.043Z,19.50
2018-09-17T22:36:47.990Z,19.50
2018-09-17T22:39:16.612Z,19.40
2018-09-17T22:41:45.396Z,19.40
2018-09-17T22:44:13.982Z,19.40
2018-09-17T22:46:43.151Z,19.40
2018-09-17T22:49:11.659Z,19.40
2018-09-17T22:51:42.183Z,19.40
2018-09-17T22:54:11.530Z,19.30
2018-09-17T22:56:51.054Z,19.30
2018-09-17T22:59:19.646Z,19.30
2018-09-17T23:01:48.291Z,19.30
2018-09-17T23:04:18.459Z,19.20
2018-09-17T23:06:47.107Z,19.20
2018-09-17T23:09:15.714Z,19.20
2018-09-17T23:11:45.975Z,19.20
2018-09-17T23:16:52.275Z,19.20
2018-09-17T23:19:22.604Z,18.70
2018-09-17T23:21:51.239Z,19.10
2018-09-17T23:24:19.912Z,19.10
2018-09-17T23:26:49.824Z,17.70
2018-09-17T23:29:18.534Z,18.90
2018-09-17T23:31:49.948Z,18.90
2018-09-17T23:34:19.864Z,20.70
2018-09-17T23:36:48.495Z,18.50
2018-09-17T23:39:17.143Z,19.30
2018-09-17T23:41:45.783Z,18.80
2018-09-17T23:44:14.402Z,17.00
2018-09-17T23:46:43.470Z,18.80
2018-09-17T23:49:12.198Z,18.80
2018-09-17T23:51:41.451Z,18.80
2018-09-17T23:54:11.114Z,18.20
2018-09-17T23:56:41.123Z,18.80
2018-09-17T23:59:11.232Z,18.80
